Time;durP1;ratioP1;P1;durP2;ratioP2;P2;SDS_P1;SDS_P2;PMS_P1;PMS_P2;Temp;Humidity;BMP_temperature;BMP_pressure;BME280_temperature;BME280_humidity;BME280_pressure;Samples;Min_cycle;Max_cycle;Signal;HPM_P1;HPM_P2
2022/09/08 00:00:44;;;;;;;13.35;12.13;;;18.50;83.50;;;;;;5009682;28;20094;-72
2022/09/08 00:03:13;;;;;;;17.40;15.30;;;18.50;83.60;;;;;;5008548;28;20489;-73
2022/09/08 00:05:57;;;;;;;17.60;15.70;;;18.50;83.40;;;;;;5010927;28;20485;-73
2022/09/08 00:08:23;;;;;;;18.20;15.20;;;18.50;83.50;;;;;;4993343;28;20121;-73
2022/09/08 00:10:52;;;;;;;17.80;16.10;;;18.50;83.50;;;;;;5009536;28;20078;-72
2022/09/08 00:13:18;;;;;;;18.13;16.13;;;18.50;83.50;;;;;;5009582;28;20045;-74
2022/09/08 00:15:45;;;;;;;17.20;15.45;;;18.40;83.60;;;;;;5009484;28;20497;-74
2022/09/08 00:18:11;;;;;;;17.20;15.68;;;18.50;83.50;;;;;;5009501;28;20050;-73
2022/09/08 00:20:36;;;;;;;16.25;14.65;;;18.40;83.60;;;;;;5009372;28;20046;-74
2022/09/08 00:23:02;;;;;;;16.63;15.02;;;18.40;83.60;;;;;;5009376;28;20045;-74
2022/09/08 00:25:28;;;;;;;14.80;13.40;;;18.50;83.50;;;;;;5009408;28;20182;-74
2022/09/08 00:27:53;;;;;;;17.10;15.45;;;18.50;83.50;;;;;;4993046;28;20189;-73
2022/09/08 00:30:19;;;;;;;13.75;12.55;;;18.40;83.50;;;;;;5009296;28;20095;-74
2022/09/08 00:32:45;;;;;;;16.63;14.95;;;18.40;83.50;;;;;;5009303;28;20049;-74
2022/09/08 00:35:14;;;;;;;15.15;13.60;;;18.40;83.40;;;;;;5009559;28;20117;-74
2022/09/08 00:37:41;;;;;;;16.20;14.50;;;18.40;83.30;;;;;;5009056;28;20050;-74
2022/09/08 00:40:08;;;;;;;17.05;15.30;;;18.40;83.00;;;;;;5009087;28;20054;-73
2022/09/08 00:42:33;;;;;;;15.45;13.95;;;18.30;83.40;;;;;;5009436;28;20038;-74
2022/09/08 00:44:59;;;;;;;17.38;14.63;;;18.20;83.40;;;;;;4992857;28;20551;-73
2022/09/08 00:47:30;;;;;;;13.88;12.57;;;18.30;83.30;;;;;;5009176;28;20124;-74
2022/09/08 00:50:16;;;;;;;15.88;13.30;;;18.20;83.50;;;;;;4992985;28;20087;-76
2022/09/08 00:52:49;;;;;;;14.70;13.27;;;18.20;83.30;;;;;;5009378;28;20121;-75
2022/09/08 00:55:15;;;;;;;17.23;13.73;;;18.20;83.10;;;;;;5009006;28;20478;-73
2022/09/08 00:57:41;;;;;;;19.27;15.32;;;18.20;83.00;;;;;;5009009;28;20049;-74
2022/09/08 01:00:10;;;;;;;17.23;15.45;;;18.20;82.90;;;;;;5008866;28;20050;-74
2022/09/08 01:02:36;;;;;;;15.70;14.32;;;18.10;83.10;;;;;;5009163;28;20059;-73
2022/09/08 01:05:05;;;;;;;16.17;14.57;;;18.00;83.70;;;;;;5009066;28;20103;-73
2022/09/08 01:13:37;;;;;;;16.10;14.63;;;18.00;84.30;;;;;;5009506;28;20468;-73
2022/09/08 01:16:05;;;;;;;19.52;15.23;;;18.00;84.00;;;;;;5012346;28;20046;-74
2022/09/08 01:18:32;;;;;;;19.40;17.40;;;18.00;83.90;;;;;;5012424;28;20490;-73
2022/09/08 01:21:17;;;;;;;20.60;18.52;;;18.00;84.10;;;;;;5012208;28;20099;-75
2022/09/08 01:24:01;;;;;;;19.55;17.65;;;18.00;84.20;;;;;;5012072;28;20486;-74
2022/09/08 01:26:45;;;;;;;18.52;16.77;;;18.00;83.90;;;;;;5012085;28;20038;-73
2022/09/08 01:29:12;;;;;;;;;;;18.10;84.40;;;;;;5012563;28;20084;-73
2022/09/08 01:31:41;;;;;;;20.30;18.08;;;18.10;84.70;;;;;;5012067;28;20374;-75
2022/09/08 01:34:07;;;;;;;21.85;19.67;;;18.10;84.10;;;;;;5011927;28;20046;-73
2022/09/08 01:36:32;;;;;;;20.00;18.17;;;18.10;84.00;;;;;;5012208;28;20502;-73
2022/09/08 01:38:58;;;;;;;22.65;20.48;;;18.10;84.20;;;;;;5011698;28;20073;-74
2022/09/08 01:41:24;;;;;;;23.05;20.85;;;18.20;84.40;;;;;;5011903;28;20056;-73
2022/09/08 01:43:49;;;;;;;21.55;19.35;;;18.10;84.30;;;;;;5011878;28;20042;-72
2022/09/08 01:46:15;;;;;;;23.30;20.80;;;18.10;84.20;;;;;;5012085;28;20057;-73
2022/09/08 01:48:41;;;;;;;19.67;17.80;;;18.10;84.30;;;;;;5011578;28;20393;-74
2022/09/08 01:51:07;;;;;;;18.67;16.90;;;18.20;84.40;;;;;;5012933;28;20509;-74
2022/09/08 01:53:34;;;;;;;23.83;21.33;;;18.10;84.50;;;;;;5011992;28;20487;-74
2022/09/08 01:56:01;;;;;;;26.05;22.88;;;18.10;84.40;;;;;;5011936;28;20042;-72
2022/09/08 01:58:27;;;;;;;20.67;18.58;;;18.00;84.80;;;;;;5011584;28;20053;-74
2022/09/08 02:00:53;;;;;;;26.92;24.17;;;18.00;85.10;;;;;;5011907;28;20127;-74
2022/09/08 02:03:19;;;;;;;24.50;22.20;;;18.10;84.60;;;;;;5011528;28;20042;-74
2022/09/08 02:05:45;;;;;;;27.17;24.48;;;18.00;84.90;;;;;;5011539;28;20042;-73
2022/09/08 02:08:12;;;;;;;24.35;21.95;;;18.00;84.80;;;;;;5011488;28;20444;-73
2022/09/08 02:10:38;;;;;;;26.55;24.05;;;18.00;84.90;;;;;;4995054;28;20054;-73
2022/09/08 02:13:04;;;;;;;27.92;25.23;;;18.10;84.40;;;;;;5011405;28;20103;-73
2022/09/08 02:15:30;;;;;;;25.35;22.95;;;18.10;84.80;;;;;;5011395;28;20050;-72
2022/09/08 02:18:00;;;;;;;29.42;26.65;;;18.20;84.80;;;;;;5011334;28;20088;-73
2022/09/08 02:20:26;;;;;;;25.65;23.25;;;18.20;84.70;;;;;;5011220;28;20052;-72
2022/09/08 02:22:55;;;;;;;28.33;25.58;;;18.20;85.20;;;;;;5011260;28;20042;-74
2022/09/08 02:25:21;;;;;;;28.35;25.75;;;18.30;84.90;;;;;;5010205;28;20042;-73
2022/09/08 02:27:50;;;;;;;29.75;26.88;;;18.30;84.90;;;;;;5011133;28;20046;-73
2022/09/08 02:30:15;;;;;;;29.05;26.05;;;18.40;85.10;;;;;;4995435;28;20077;-72
2022/09/08 02:32:41;;;;;;;30.33;27.30;;;18.40;84.90;;;;;;5011076;28;20482;-73
2022/09/08 02:35:07;;;;;;;28.88;25.98;;;18.40;85.00;;;;;;5011113;28;20091;-73
2022/09/08 02:37:33;;;;;;;27.63;24.98;;;18.30;85.20;;;;;;4994834;28;20482;-73
2022/09/08 02:39:58;;;;;;;26.90;24.25;;;18.30;85.30;;;;;;4994441;28;20179;-74
2022/09/08 02:42:24;;;;;;;25.67;23.30;;;18.30;85.60;;;;;;5011009;28;20429;-74
2022/09/08 02:44:50;;;;;;;32.08;28.90;;;18.30;85.50;;;;;;5010940;28;20080;-73
2022/09/08 02:47:15;;;;;;;30.95;27.92;;;18.30;85.90;;;;;;5010809;28;20042;-74
2022/09/08 02:49:41;;;;;;;33.00;29.77;;;18.20;85.60;;;;;;5010775;28;20048;-73
2022/09/08 02:52:08;;;;;;;31.95;28.88;;;18.30;85.90;;;;;;5010839;28;20121;-73
2022/09/08 02:54:34;;;;;;;33.42;29.77;;;18.30;85.50;;;;;;5010784;28;20046;-73
2022/09/08 02:57:00;;;;;;;29.33;26.42;;;18.30;85.40;;;;;;5010752;28;20052;-74
2022/09/08 02:59:26;;;;;;;30.00;27.08;;;18.30;85.30;;;;;;4994519;28;20049;-74
2022/09/08 03:01:52;;;;;;;27.55;24.88;;;18.30;85.50;;;;;;4994418;28;20067;-73
2022/09/08 03:04:18;;;;;;;27.80;24.45;;;18.40;85.20;;;;;;5010909;28;20083;-72
2022/09/08 03:06:44;;;;;;;32.58;29.02;;;18.40;85.50;;;;;;5010510;28;20432;-74
2022/09/08 03:09:09;;;;;;;29.85;26.98;;;18.30;85.40;;;;;;5010601;28;20111;-74
2022/09/08 03:11:35;;;;;;;25.83;23.45;;;18.30;85.40;;;;;;5010528;28;20049;-73
2022/09/08 03:14:01;;;;;;;31.75;28.63;;;18.30;85.40;;;;;;5010509;28;20038;-74
2022/09/08 03:16:27;;;;;;;24.50;22.00;;;18.30;85.40;;;;;;5010469;28;20077;-72
2022/09/08 03:18:54;;;;;;;32.35;29.20;;;18.30;85.10;;;;;;5010321;28;20050;-73
2022/09/08 03:21:20;;;;;;;31.60;28.42;;;18.30;85.50;;;;;;5010577;28;20048;-71
2022/09/08 03:23:46;;;;;;;31.80;28.58;;;18.30;85.40;;;;;;5010364;28;20084;-73
2022/09/08 03:26:17;;;;;;;33.08;29.92;;;18.30;85.30;;;;;;5010322;28;20038;-73
2022/09/08 03:28:44;;;;;;;33.03;29.77;;;18.40;85.40;;;;;;5010154;28;20049;-73
2022/09/08 03:31:13;;;;;;;27.67;25.02;;;18.30;85.50;;;;;;5010231;28;20084;-74
2022/09/08 03:33:39;;;;;;;31.45;28.17;;;18.40;85.40;;;;;;4994127;28;20045;-74
2022/09/08 03:36:07;;;;;;;31.20;28.15;;;18.40;85.40;;;;;;5010078;28;20509;-74
2022/09/08 03:38:36;;;;;;;32.60;29.23;;;18.40;85.20;;;;;;5009880;28;20441;-73
2022/09/08 03:41:06;;;;;;;32.67;29.55;;;18.40;85.30;;;;;;4993975;28;20307;-72
2022/09/08 03:43:32;;;;;;;32.17;28.95;;;18.40;85.40;;;;;;4994302;28;20054;-74
2022/09/08 03:45:58;;;;;;;34.78;31.30;;;18.40;85.50;;;;;;5010021;28;20482;-74
2022/09/08 03:48:23;;;;;;;34.95;31.67;;;18.40;85.40;;;;;;5009937;28;20050;-73
2022/09/08 03:50:50;;;;;;;36.10;32.42;;;18.40;85.50;;;;;;5010153;28;20049;-73
2022/09/08 03:53:15;;;;;;;33.83;30.13;;;18.40;85.60;;;;;;5009932;28;20125;-74
2022/09/08 03:55:42;;;;;;;35.17;31.70;;;18.30;85.60;;;;;;5009867;28;20133;-73
2022/09/08 03:58:08;;;;;;;35.70;32.20;;;18.30;85.70;;;;;;5009816;28;20053;-72
2022/09/08 04:00:35;;;;;;;34.28;31.00;;;18.30;85.80;;;;;;5009694;28;20065;-73
2022/09/08 04:03:01;;;;;;;36.22;32.63;;;18.30;86.10;;;;;;5009728;28;20083;-74
2022/09/08 04:05:26;;;;;;;36.03;32.42;;;18.20;86.50;;;;;;5009791;28;20049;-72
2022/09/08 04:07:52;;;;;;;38.22;34.35;;;18.20;86.50;;;;;;5009534;28;20049;-73
2022/09/08 04:10:19;;;;;;;36.88;33.47;;;18.20;86.70;;;;;;5009829;28;20112;-74
2022/09/08 04:12:46;;;;;;;36.97;33.38;;;18.20;87.30;;;;;;5009865;28;20389;-74
2022/09/08 04:15:12;;;;;;;40.33;36.05;;;18.10;87.10;;;;;;5009800;28;20044;-72
2022/09/08 04:17:39;;;;;;;40.53;36.60;;;18.10;87.00;;;;;;5009818;28;20466;-74
2022/09/08 04:20:06;;;;;;;37.60;33.88;;;18.00;87.70;;;;;;5009805;28;20053;-72
2022/09/08 04:22:31;;;;;;;40.05;35.90;;;18.00;87.50;;;;;;5009465;28;20057;-72
2022/09/08 04:24:57;;;;;;;46.55;41.42;;;18.00;87.70;;;;;;5009277;28;20402;-74
2022/09/08 04:27:23;;;;;;;49.80;44.15;;;18.00;88.90;;;;;;4992897;28;20046;-71
2022/09/08 04:29:50;;;;;;;53.88;45.92;;;17.90;89.40;;;;;;5009493;28;20046;-73
2022/09/08 04:32:16;;;;;;;48.05;42.58;;;17.80;90.30;;;;;;5009213;28;20185;-74
2022/09/08 04:34:42;;;;;;;39.55;35.28;;;17.70;90.60;;;;;;5009283;28;20045;-75
2022/09/08 04:37:08;;;;;;;41.67;36.53;;;17.60;90.70;;;;;;5009212;28;20042;-73
2022/09/08 04:39:34;;;;;;;37.47;32.05;;;17.60;90.20;;;;;;5009164;28;20063;-75
2022/09/08 04:42:00;;;;;;;39.25;33.88;;;17.60;90.60;;;;;;5009088;28;20049;-74
2022/09/08 04:44:26;;;;;;;36.83;31.35;;;17.50;90.20;;;;;;5009085;28;20048;-75
2022/09/08 04:46:52;;;;;;;44.30;35.65;;;17.60;90.30;;;;;;4992671;28;20034;-75
2022/09/08 04:49:17;;;;;;;40.08;32.85;;;17.50;90.10;;;;;;5008235;28;20121;-73
2022/09/08 04:51:43;;;;;;;33.95;29.27;;;17.60;89.90;;;;;;4992667;28;20042;-74
2022/09/08 04:54:09;;;;;;;31.95;27.33;;;17.60;89.80;;;;;;5009148;28;20042;-75
2022/09/08 04:56:35;;;;;;;31.77;27.50;;;17.60;89.40;;;;;;5009015;28;20116;-75
2022/09/08 04:59:02;;;;;;;33.47;27.23;;;17.60;89.40;;;;;;5008659;28;20038;-73
2022/09/08 05:01:31;;;;;;;30.67;27.10;;;17.60;89.40;;;;;;5008410;28;20091;-75
2022/09/08 05:04:00;;;;;;;31.42;27.83;;;17.60;89.30;;;;;;5007415;28;20182;-76
2022/09/08 05:06:27;;;;;;;27.98;25.02;;;17.60;89.50;;;;;;5008505;28;20042;-75
2022/09/08 05:08:55;;;;;;;42.10;31.77;;;17.50;89.50;;;;;;5008635;28;20394;-74
2022/09/08 05:11:22;;;;;;;39.60;31.27;;;17.60;89.70;;;;;;5009036;28;20046;-75
2022/09/08 05:13:50;;;;;;;38.50;32.58;;;17.60;89.80;;;;;;5008760;28;20038;-76
2022/09/08 05:16:19;;;;;;;36.00;30.73;;;17.70;89.80;;;;;;5008696;28;20042;-73
2022/09/08 05:18:50;;;;;;;41.38;34.08;;;17.60;90.00;;;;;;5008640;28;20081;-75
2022/09/08 05:21:16;;;;;;;36.45;30.88;;;17.60;90.80;;;;;;5008561;28;20074;-74
2022/09/08 05:23:42;;;;;;;35.58;31.77;;;17.60;90.80;;;;;;5008519;28;20056;-76
2022/09/08 05:26:13;;;;;;;32.70;29.15;;;17.60;90.80;;;;;;4992231;28;20050;-77
2022/09/08 05:28:40;;;;;;;31.17;26.33;;;17.60;90.60;;;;;;5008323;28;20049;-75
2022/09/08 05:31:08;;;;;;;16.75;13.30;;;17.70;90.50;;;;;;4992409;28;20720;-77
2022/09/08 05:33:34;;;;;;;18.75;16.80;;;17.70;90.20;;;;;;5008471;28;20053;-75
2022/09/08 05:36:00;;;;;;;25.30;20.45;;;17.70;90.30;;;;;;5008577;28;20046;-74
2022/09/08 05:38:27;;;;;;;27.10;20.63;;;17.60;90.10;;;;;;4991861;28;20081;-74
2022/09/08 05:40:52;;;;;;;25.48;21.02;;;17.70;90.00;;;;;;5009638;28;20053;-76
2022/09/08 05:43:19;;;;;;;23.23;18.15;;;17.70;89.90;;;;;;5008027;28;20045;-74
2022/09/08 05:45:47;;;;;;;26.50;17.50;;;17.70;89.70;;;;;;5007979;28;20512;-74
2022/09/08 05:48:13;;;;;;;22.67;19.08;;;17.70;89.70;;;;;;5007956;28;20054;-74
2022/09/08 05:50:44;;;;;;;21.48;17.88;;;17.60;89.90;;;;;;4991582;28;20053;-74
2022/09/08 05:53:10;;;;;;;19.75;17.67;;;17.70;89.90;;;;;;5008108;28;20049;-75
2022/09/08 05:55:36;;;;;;;23.45;18.88;;;17.70;89.90;;;;;;4992113;28;20416;-77
2022/09/08 05:58:02;;;;;;;22.80;19.48;;;17.70;89.90;;;;;;5008146;28;20054;-75
2022/09/08 06:00:28;;;;;;;25.27;20.40;;;17.70;90.10;;;;;;5009886;28;20034;-76
2022/09/08 06:02:54;;;;;;;23.58;17.45;;;17.70;90.30;;;;;;5011381;28;20129;-76
2022/09/08 06:05:21;;;;;;;19.45;16.48;;;17.70;90.30;;;;;;4995152;28;20137;-78
2022/09/08 06:07:49;;;;;;;23.98;18.92;;;17.70;90.30;;;;;;4995203;28;20070;-77
2022/09/08 06:10:16;;;;;;;14.25;12.73;;;17.70;90.30;;;;;;5011129;28;20438;-76
2022/09/08 06:12:42;;;;;;;18.77;16.40;;;17.70;90.10;;;;;;5011039;28;20125;-75
2022/09/08 06:15:08;;;;;;;20.48;18.08;;;17.70;89.90;;;;;;4994732;28;20049;-76
2022/09/08 06:17:35;;;;;;;23.70;20.30;;;17.70;89.90;;;;;;4994822;28;20049;-77
2022/09/08 06:20:01;;;;;;;23.25;19.15;;;17.70;90.10;;;;;;5010862;28;20057;-77
2022/09/08 06:22:29;;;;;;;25.23;22.20;;;17.50;90.20;;;;;;4994866;28;20647;-76
2022/09/08 06:24:55;;;;;;;28.10;24.83;;;17.50;90.10;;;;;;5011222;28;20042;-77
2022/09/08 06:27:23;;;;;;;27.98;24.58;;;17.50;90.20;;;;;;5011041;28;20049;-76
2022/09/08 06:30:12;;;;;;;31.80;28.35;;;17.50;90.40;;;;;;5011067;28;20133;-77
2022/09/08 06:32:58;;;;;;;34.28;29.58;;;17.50;90.80;;;;;;5011100;28;20038;-77
2022/09/08 06:35:29;;;;;;;35.58;30.38;;;17.50;90.60;;;;;;5011316;28;20454;-78
2022/09/08 06:38:01;;;;;;;40.13;32.40;;;17.50;90.70;;;;;;5011218;28;20045;-76
2022/09/08 06:40:49;;;;;;;37.88;29.88;;;17.50;90.50;;;;;;5011366;28;20053;-76
2022/09/08 06:43:36;;;;;;;32.25;28.85;;;17.60;90.80;;;;;;5011373;28;20157;-77
2022/09/08 06:46:11;;;;;;;47.08;31.40;;;17.50;90.80;;;;;;5011065;28;20497;-76
2022/09/08 06:48:37;;;;;;;34.45;26.73;;;17.50;91.20;;;;;;5011173;28;20050;-76
2022/09/08 06:51:42;;;;;;;36.88;28.90;;;17.40;91.10;;;;;;5011571;28;20057;-75
2022/09/08 06:54:45;;;;;;;26.50;18.83;;;17.30;91.70;;;;;;5011275;28;20042;-77
2022/09/08 06:57:29;;;;;;;19.65;13.57;;;17.20;91.50;;;;;;5011129;28;20128;-75
2022/09/08 07:00:11;;;;;;;18.63;12.38;;;17.10;91.30;;;;;;4994719;28;20443;-74
2022/09/08 07:03:08;;;;;;;9.27;6.80;;;17.00;91.30;;;;;;5011044;28;20050;-78
2022/09/08 07:05:45;;;;;;;10.32;8.52;;;17.00;91.20;;;;;;5010939;28;20038;-75
2022/09/08 07:08:23;;;;;;;13.07;9.25;;;17.00;91.20;;;;;;5010912;28;20094;-75
2022/09/08 07:11:01;;;;;;;12.50;8.27;;;17.00;91.00;;;;;;5010771;28;20057;-77
2022/09/08 07:13:46;;;;;;;10.98;8.68;;;16.90;91.20;;;;;;5010761;28;20385;-75
2022/09/08 07:16:20;;;;;;;12.25;9.40;;;16.90;91.30;;;;;;5010972;28;20038;-74
2022/09/08 07:19:02;;;;;;;12.80;9.35;;;16.90;91.00;;;;;;5011086;28;20050;-75
2022/09/08 07:21:27;;;;;;;15.45;10.20;;;16.90;90.90;;;;;;5010846;28;20539;-74
2022/09/08 07:23:57;;;;;;;15.07;11.55;;;17.00;90.70;;;;;;5010537;28;20091;-74
2022/09/08 07:26:33;;;;;;;13.50;9.00;;;16.90;90.50;;;;;;5007014;28;20082;-75
2022/09/08 07:29:07;;;;;;;11.40;9.07;;;16.90;90.50;;;;;;5007179;28;20474;-76
2022/09/08 07:31:41;;;;;;;11.82;9.35;;;16.80;90.60;;;;;;5009301;28;20042;-74
2022/09/08 07:34:15;;;;;;;11.27;8.50;;;16.80;91.00;;;;;;5010177;28;20056;-75
2022/09/08 07:36:47;;;;;;;9.48;7.20;;;16.90;91.00;;;;;;5009868;28;20523;-74
2022/09/08 07:39:37;;;;;;;8.98;6.78;;;16.90;90.80;;;;;;5009663;28;20042;-75
2022/09/08 07:42:05;;;;;;;9.02;8.07;;;16.90;90.70;;;;;;5009937;28;20489;-76
2022/09/08 07:44:33;;;;;;;9.35;8.00;;;16.90;90.80;;;;;;5010290;28;20371;-77
2022/09/08 07:47:17;;;;;;;7.20;6.07;;;17.00;91.00;;;;;;5009979;28;20041;-75
2022/09/08 07:50:01;;;;;;;9.17;6.03;;;16.90;90.80;;;;;;5009974;28;20048;-77
2022/09/08 07:52:32;;;;;;;;;;;16.90;90.70;;;;;;4994337;28;20386;-78
2022/09/08 07:55:04;;;;;;;8.80;6.47;;;16.90;91.40;;;;;;5042868;28;20008;-78
2022/09/08 07:58:11;;;;;;;11.52;8.20;;;17.00;91.00;;;;;;5009998;28;20082;-77
2022/09/08 08:00:55;;;;;;;14.57;8.98;;;17.00;91.40;;;;;;4934416;29;20054;-77
2022/09/08 08:03:34;;;;;;;7.65;6.72;;;17.00;91.10;;;;;;4934924;29;20045;-77
2022/09/08 08:06:15;;;;;;;10.77;7.68;;;17.00;90.90;;;;;;4986509;28;20509;-77
2022/09/08 08:09:03;;;;;;;11.30;8.73;;;17.00;90.90;;;;;;5009585;28;20034;-75
2022/09/08 08:11:53;;;;;;;8.10;7.32;;;17.00;90.90;;;;;;5009937;28;20046;-77
2022/09/08 08:14:22;;;;;;;9.50;8.30;;;17.00;91.00;;;;;;5009600;28;20053;-76
2022/09/08 08:17:01;;;;;;;9.02;8.10;;;17.00;91.00;;;;;;5009907;28;20129;-75
2022/09/08 08:19:49;;;;;;;11.90;8.40;;;17.00;91.10;;;;;;5009418;28;20050;-77
2022/09/08 08:22:25;;;;;;;9.85;7.95;;;17.10;91.10;;;;;;5009826;28;20045;-74
2022/09/08 08:25:14;;;;;;;7.75;7.00;;;17.10;91.30;;;;;;5008103;28;20042;-78
2022/09/08 08:28:07;;;;;;;8.63;7.63;;;17.00;91.30;;;;;;5010027;28;20113;-78
2022/09/08 08:30:42;;;;;;;9.40;8.50;;;17.10;91.50;;;;;;4992884;28;20115;-75
2022/09/08 08:33:08;;;;;;;9.35;7.47;;;17.20;91.60;;;;;;5010384;28;20382;-74
2022/09/08 08:35:43;;;;;;;6.72;6.00;;;17.20;91.40;;;;;;5011284;28;20052;-78
2022/09/08 08:38:16;;;;;;;6.00;5.03;;;17.10;91.30;;;;;;5011569;28;20041;-74
2022/09/08 08:40:45;;;;;;;6.15;5.53;;;17.20;91.30;;;;;;5011369;28;20074;-74
2022/09/08 08:43:20;;;;;;;6.35;4.85;;;17.20;91.30;;;;;;5012015;28;20462;-77
2022/09/08 08:45:51;;;;;;;7.25;4.40;;;17.10;91.50;;;;;;5012949;28;20046;-74
2022/09/08 08:48:25;;;;;;;4.95;3.92;;;17.10;91.40;;;;;;5010648;28;20038;-75
2022/09/08 08:51:08;;;;;;;3.88;3.22;;;17.10;91.30;;;;;;5009325;28;20042;-76
2022/09/08 08:54:01;;;;;;;4.20;2.85;;;17.00;91.40;;;;;;5009460;28;20099;-75
2022/09/08 08:56:48;;;;;;;4.10;2.92;;;17.00;91.30;;;;;;5009669;28;20046;-76
2022/09/08 08:59:28;;;;;;;3.03;2.60;;;17.00;91.40;;;;;;5009591;28;20038;-77
2022/09/08 09:02:17;;;;;;;3.20;2.20;;;17.10;91.30;;;;;;4993343;28;20493;-78
2022/09/08 09:05:09;;;;;;;3.42;2.90;;;17.00;91.20;;;;;;5007873;28;21184;-76
2022/09/08 09:08:01;;;;;;;2.72;2.53;;;17.10;91.20;;;;;;5006199;28;20045;-77
2022/09/08 09:10:47;;;;;;;2.45;2.13;;;17.00;91.00;;;;;;5005122;28;20061;-78
2022/09/08 09:13:42;;;;;;;3.17;1.80;;;17.00;90.90;;;;;;5003421;28;20090;-77
2022/09/08 09:16:53;;;;;;;3.10;1.80;;;16.90;90.90;;;;;;4995675;28;20046;-79
2022/09/08 09:19:44;;;;;;;2.47;1.80;;;16.90;90.80;;;;;;5020956;28;20187;-80
2022/09/08 09:22:32;;;;;;;2.65;1.45;;;16.90;90.80;;;;;;5003443;28;20045;-77
2022/09/08 09:25:04;;;;;;;2.60;1.90;;;16.90;90.70;;;;;;5004019;28;20501;-77
2022/09/08 09:27:46;;;;;;;2.10;1.75;;;16.90;90.70;;;;;;5005623;28;20081;-80
2022/09/08 09:30:14;;;;;;;2.38;1.70;;;16.80;90.60;;;;;;5005427;28;20436;-78
2022/09/08 09:33:01;;;;;;;2.78;1.88;;;16.90;90.60;;;;;;4989003;28;20042;-79
2022/09/08 09:35:45;;;;;;;3.38;2.30;;;16.90;90.90;;;;;;5005516;28;20099;-76
2022/09/08 09:38:13;;;;;;;1.95;1.75;;;16.90;91.00;;;;;;5008317;28;20042;-81
2022/09/08 09:40:55;;;;;;;2.75;1.48;;;16.90;90.80;;;;;;5006396;28;20050;-79
2022/09/08 09:43:51;;;;;;;1.70;1.50;;;16.80;91.00;;;;;;5007687;28;20050;-77
2022/09/08 09:46:36;;;;;;;2.22;1.70;;;16.80;90.80;;;;;;5005982;28;20046;-78
2022/09/08 09:49:35;;;;;;;2.55;1.58;;;16.80;90.80;;;;;;5007937;28;20046;-75
2022/09/08 09:52:07;;;;;;;3.28;1.35;;;16.90;90.70;;;;;;5007223;28;20107;-79
2022/09/08 09:54:38;;;;;;;1.63;1.38;;;16.80;90.70;;;;;;5004434;28;20049;-76
2022/09/08 09:57:23;;;;;;;1.90;1.33;;;16.80;90.90;;;;;;5004250;28;20103;-79
2022/09/08 10:00:14;;;;;;;2.38;1.50;;;16.80;90.80;;;;;;5004250;28;20402;-76
2022/09/08 10:02:43;;;;;;;1.80;1.55;;;16.80;90.90;;;;;;5005125;28;20069;-80
2022/09/08 10:05:39;;;;;;;1.83;1.45;;;16.80;90.70;;;;;;5003186;28;20042;-79
2022/09/08 10:08:33;;;;;;;1.80;1.70;;;16.80;90.80;;;;;;5005210;28;20049;-78
2022/09/08 10:11:26;;;;;;;2.25;1.63;;;16.80;90.80;;;;;;5005524;28;20054;-77
2022/09/08 10:13:51;;;;;;;3.08;2.42;;;16.80;90.90;;;;;;5010155;28;20038;-77
2022/09/08 10:16:47;;;;;;;3.38;2.80;;;16.80;90.80;;;;;;5011398;28;20037;-76
2022/09/08 10:19:26;;;;;;;5.03;3.08;;;16.80;91.20;;;;;;5011644;28;20034;-75
2022/09/08 10:22:17;;;;;;;6.32;3.72;;;16.70;91.70;;;;;;5011493;28;20111;-77
2022/09/08 10:25:01;;;;;;;4.60;4.10;;;16.80;91.70;;;;;;5011223;28;20038;-74
2022/09/08 10:27:51;;;;;;;4.57;3.33;;;16.70;92.30;;;;;;5011420;28;20038;-78
2022/09/08 10:30:35;;;;;;;6.40;4.57;;;16.70;92.40;;;;;;5011411;28;20042;-75
2022/09/08 10:33:23;;;;;;;6.85;4.78;;;16.70;93.10;;;;;;5011425;28;20121;-77
2022/09/08 10:35:54;;;;;;;6.05;4.50;;;16.70;93.20;;;;;;5011109;28;20071;-74
2022/09/08 10:38:35;;;;;;;6.93;4.53;;;16.70;93.00;;;;;;5010798;28;20106;-75
2022/09/08 10:41:42;;;;;;;7.55;5.22;;;16.70;93.50;;;;;;4994689;28;20061;-77
2022/09/08 10:44:10;;;;;;;7.03;4.18;;;16.70;92.90;;;;;;5010821;28;20566;-80
2022/09/08 10:46:57;;;;;;;6.03;3.83;;;16.70;93.50;;;;;;5009938;28;20129;-79
2022/09/08 10:49:51;;;;;;;6.32;3.08;;;16.70;93.50;;;;;;5006032;28;20129;-74
2022/09/08 10:52:49;;;;;;;4.82;2.83;;;16.60;93.50;;;;;;5005786;28;20133;-78
2022/09/08 10:55:40;;;;;;;5.28;3.33;;;16.70;93.30;;;;;;5004928;28;20058;-75
2022/09/08 10:58:50;;;;;;;5.72;3.05;;;16.70;93.80;;;;;;5003707;28;20058;-74
2022/09/08 11:01:24;;;;;;;3.42;2.28;;;16.70;93.30;;;;;;5003526;28;20442;-80
2022/09/08 11:04:18;;;;;;;4.35;1.98;;;16.70;93.70;;;;;;5004767;28;20085;-77
2022/09/08 11:06:53;;;;;;;3.08;1.90;;;16.70;93.70;;;;;;4988444;28;20498;-80
2022/09/08 11:09:30;;;;;;;3.72;2.13;;;16.80;93.30;;;;;;5003268;28;20073;-75
2022/09/08 11:12:28;;;;;;;4.30;2.28;;;16.90;92.90;;;;;;5003167;28;20045;-76
2022/09/08 11:15:27;;;;;;;4.85;1.90;;;16.90;93.10;;;;;;5003458;28;20053;-76
2022/09/08 11:18:16;;;;;;;4.68;2.20;;;17.00;92.80;;;;;;4987896;28;20057;-76
2022/09/08 11:20:55;;;;;;;4.30;2.05;;;17.10;92.60;;;;;;5004506;28;20095;-77
2022/09/08 11:23:20;;;;;;;3.47;2.33;;;17.20;92.40;;;;;;4988135;28;20103;-78
2022/09/08 11:26:01;;;;;;;4.00;2.03;;;17.20;92.60;;;;;;5004303;28;20378;-79
2022/09/08 11:29:06;;;;;;;3.55;2.47;;;17.20;92.60;;;;;;5007863;28;20045;-79
2022/09/08 11:31:53;;;;;;;3.67;2.20;;;17.30;92.50;;;;;;4998552;28;20054;-75
2022/09/08 11:34:40;;;;;;;4.88;2.92;;;17.30;92.10;;;;;;5010468;28;20038;-79
2022/09/08 11:37:30;;;;;;;5.25;2.65;;;17.30;92.20;;;;;;4994103;28;20398;-81
2022/09/08 11:40:18;;;;;;;5.50;3.22;;;17.40;92.50;;;;;;5010018;28;20058;-80
2022/09/08 11:42:59;;;;;;;3.72;2.25;;;17.40;92.60;;;;;;5009064;28;20092;-79
2022/09/08 11:45:42;;;;;;;3.83;2.13;;;17.40;92.40;;;;;;5010272;28;20085;-82
2022/09/08 11:48:29;;;;;;;5.20;2.97;;;17.40;92.60;;;;;;5009999;28;20034;-79
2022/09/08 11:51:11;;;;;;;4.38;2.55;;;17.40;92.70;;;;;;5010002;28;20078;-76
2022/09/08 11:53:52;;;;;;;4.00;2.47;;;17.50;92.50;;;;;;4993569;28;20200;-82
2022/09/08 11:56:23;;;;;;;3.47;2.53;;;17.50;92.70;;;;;;5009913;28;20091;-81
2022/09/08 11:59:16;;;;;;;5.28;3.10;;;17.50;92.90;;;;;;5010181;28;20056;-78
2022/09/08 12:01:47;;;;;;;4.40;2.80;;;17.50;93.10;;;;;;4993759;28;20109;-78
2022/09/08 12:04:41;;;;;;;6.00;3.03;;;17.50;93.20;;;;;;5009969;28;20042;-79
2022/09/08 12:07:34;;;;;;;4.13;3.70;;;17.50;93.40;;;;;;5010076;28;20111;-79
2022/09/08 12:10:37;;;;;;;4.70;3.97;;;17.50;93.30;;;;;;5009944;28;20049;-78
2022/09/08 12:13:22;;;;;;;6.60;4.40;;;17.50;93.30;;;;;;4993453;28;20386;-81
2022/09/08 12:15:58;;;;;;;6.25;5.20;;;17.60;93.20;;;;;;5009608;28;20053;-77
2022/09/08 12:18:55;;;;;;;5.40;4.15;;;17.60;93.30;;;;;;5009776;28;20085;-79
2022/09/08 12:21:32;;;;;;;7.75;6.47;;;17.60;92.90;;;;;;5009530;28;20046;-81
2022/09/08 12:24:19;;;;;;;9.32;6.95;;;17.70;92.90;;;;;;5009356;28;20490;-80
2022/09/08 12:27:14;;;;;;;9.20;8.30;;;17.70;92.70;;;;;;5009432;28;20558;-78
2022/09/08 12:29:55;;;;;;;10.25;8.63;;;17.80;92.60;;;;;;5009410;28;20042;-81
2022/09/08 12:32:41;;;;;;;11.82;8.90;;;17.80;92.70;;;;;;4993412;28;20191;-82
2022/09/08 12:35:30;;;;;;;11.18;8.88;;;17.90;92.50;;;;;;5009494;28;20046;-78
2022/09/08 12:38:24;;;;;;;11.13;10.02;;;17.90;92.40;;;;;;5009043;28;20084;-78
2022/09/08 12:41:02;;;;;;;11.82;9.88;;;18.00;92.50;;;;;;4992989;28;20075;-81
2022/09/08 12:43:39;;;;;;;12.85;10.10;;;18.00;92.40;;;;;;5009345;28;20046;-82
2022/09/08 12:46:22;;;;;;;13.02;9.93;;;18.10;92.40;;;;;;5009155;28;20046;-80
2022/09/08 12:48:55;;;;;;;10.80;9.63;;;18.10;92.30;;;;;;5009149;28;20450;-78
2022/09/08 12:51:34;;;;;;;9.48;8.52;;;18.30;92.10;;;;;;4992840;28;20042;-78
2022/09/08 12:54:27;;;;;;;16.08;11.88;;;18.30;92.10;;;;;;5009365;28;20452;-79
2022/09/08 12:57:34;;;;;;;13.27;10.65;;;18.40;92.00;;;;;;5009169;28;20049;-79
2022/09/08 13:00:29;;;;;;;17.33;13.15;;;18.50;91.80;;;;;;4992646;28;20086;-80
2022/09/08 13:03:06;;;;;;;15.32;13.80;;;18.50;91.50;;;;;;5009136;28;20060;-79
2022/09/08 13:05:45;;;;;;;18.75;14.82;;;18.60;91.20;;;;;;5009104;28;20041;-81
2022/09/08 13:08:20;;;;;;;15.68;13.00;;;18.60;91.10;;;;;;4992600;28;20038;-78
2022/09/08 13:10:46;;;;;;;15.07;13.48;;;18.70;91.10;;;;;;5011199;28;20091;-79
2022/09/08 13:13:32;;;;;;;16.33;14.63;;;18.80;91.20;;;;;;5012340;28;20038;-79
2022/09/08 13:16:07;;;;;;;15.25;12.63;;;18.90;90.90;;;;;;5012349;28;20038;-78
2022/09/08 13:19:07;;;;;;;14.65;13.05;;;18.90;88.70;;;;;;5012395;28;20090;-78
2022/09/08 13:21:38;;;;;;;14.40;12.68;;;18.90;88.70;;;;;;5012661;28;20048;-80